Airport ID:KTME
Update Time (UTC):17/06/2018 23:58
Wind Speed (Knots):5
Wind Direction (Magnetic):100
Temperature (°C):26.5
Dew Point (°C):25.5
Humidity (%):93.5
Altimeter (inHg):29.89
Density Altitude (Feet):02000
Visibility (Miles):10
Clouds (Hundreds of feet):\\\\
Present Weather:
METAR:METAR KTME 172355Z AUTO 09006KT 10SM 27/25 A2989 RMK AO2

The data displayed is for advisory purposes only and is not to be used for flight planning or operations.

This page is not automatically refreshed. Reload the page to see current data.